sensor_id;sensor_type;location;lat;lon;timestamp;temperature;humidity
1377;DHT22;682;52.502;13.488;2023-12-20T00:00:36;7.40;1.00
1377;DHT22;682;52.502;13.488;2023-12-20T00:03:04;7.40;1.00
1377;DHT22;682;52.502;13.488;2023-12-20T00:05:31;7.50;1.00
1377;DHT22;682;52.502;13.488;2023-12-20T00:07:59;7.50;1.00
1377;DHT22;682;52.502;13.488;2023-12-20T00:10:26;7.40;1.00
1377;DHT22;682;52.502;13.488;2023-12-20T00:12:53;7.50;1.00
1377;DHT22;682;52.502;13.488;2023-12-20T00:15:20;7.40;1.00
1377;DHT22;682;52.502;13.488;2023-12-20T00:17:49;7.40;1.00
1377;DHT22;682;52.502;13.488;2023-12-20T00:20:17;7.40;1.00
1377;DHT22;682;52.502;13.488;2023-12-20T00:22:44;7.40;1.00
1377;DHT22;682;52.502;13.488;2023-12-20T00:25:11;7.40;1.00
1377;DHT22;682;52.502;13.488;2023-12-20T00:27:39;7.40;1.00
1377;DHT22;682;52.502;13.488;2023-12-20T00:30:07;7.40;1.00
1377;DHT22;682;52.502;13.488;2023-12-20T00:32:35;7.40;1.00
1377;DHT22;682;52.502;13.488;2023-12-20T00:35:02;7.50;1.00
1377;DHT22;682;52.502;13.488;2023-12-20T00:37:31;7.40;1.00
1377;DHT22;682;52.502;13.488;2023-12-20T00:39:58;7.50;1.00
1377;DHT22;682;52.502;13.488;2023-12-20T00:42:25;7.40;1.00
1377;DHT22;682;52.502;13.488;2023-12-20T00:44:52;7.40;1.00
1377;DHT22;682;52.502;13.488;2023-12-20T00:47:20;7.40;1.00
1377;DHT22;682;52.502;13.488;2023-12-20T00:49:47;7.40;1.00
1377;DHT22;682;52.502;13.488;2023-12-20T00:52:14;7.50;1.00
1377;DHT22;682;52.502;13.488;2023-12-20T00:54:44;7.40;1.00
1377;DHT22;682;52.502;13.488;2023-12-20T00:57:11;7.40;1.00
1377;DHT22;682;52.502;13.488;2023-12-20T00:59:38;7.50;1.00
1377;DHT22;682;52.502;13.488;2023-12-20T01:02:05;7.40;1.00
1377;DHT22;682;52.502;13.488;2023-12-20T01:04:32;7.40;1.00
1377;DHT22;682;52.502;13.488;2023-12-20T01:06:59;7.40;1.00
1377;DHT22;682;52.502;13.488;2023-12-20T01:09:26;7.40;1.00
1377;DHT22;682;52.502;13.488;2023-12-20T01:11:55;7.40;1.00
1377;DHT22;682;52.502;13.488;2023-12-20T01:14:22;7.40;1.00
1377;DHT22;682;52.502;13.488;2023-12-20T01:16:49;7.40;1.00
1377;DHT22;682;52.502;13.488;2023-12-20T01:19:17;7.40;1.00
1377;DHT22;682;52.502;13.488;2023-12-20T01:21:44;7.40;1.00
1377;DHT22;682;52.502;13.488;2023-12-20T01:24:11;7.40;1.00
1377;DHT22;682;52.502;13.488;2023-12-20T01:26:41;7.40;1.00
1377;DHT22;682;52.502;13.488;2023-12-20T01:29:09;7.40;1.00
1377;DHT22;682;52.502;13.488;2023-12-20T01:31:36;7.40;1.00
1377;DHT22;682;52.502;13.488;2023-12-20T01:34:03;7.50;1.00
1377;DHT22;682;52.502;13.488;2023-12-20T01:36:30;7.50;1.00
1377;DHT22;682;52.502;13.488;2023-12-20T01:38:57;7.50;1.00
1377;DHT22;682;52.502;13.488;2023-12-20T01:41:24;7.50;1.00
1377;DHT22;682;52.502;13.488;2023-12-20T01:43:52;7.50;1.00
1377;DHT22;682;52.502;13.488;2023-12-20T01:46:21;7.40;1.00
1377;DHT22;682;52.502;13.488;2023-12-20T01:48:48;7.40;1.00
1377;DHT22;682;52.502;13.488;2023-12-20T01:51:15;7.50;1.00
1377;DHT22;682;52.502;13.488;2023-12-20T01:53:43;7.50;1.00
1377;DHT22;682;52.502;13.488;2023-12-20T01:56:11;7.40;1.00
1377;DHT22;682;52.502;13.488;2023-12-20T01:58:41;7.40;1.00
1377;DHT22;682;52.502;13.488;2023-12-20T02:06:20;7.40;1.00
1377;DHT22;682;52.502;13.488;2023-12-20T02:08:49;7.40;1.00
1377;DHT22;682;52.502;13.488;2023-12-20T02:11:30;7.40;1.00
1377;DHT22;682;52.502;13.488;2023-12-20T02:13:57;7.50;1.00
1377;DHT22;682;52.502;13.488;2023-12-20T02:16:24;7.50;1.00
1377;DHT22;682;52.502;13.488;2023-12-20T02:19:13;7.50;1.00
1377;DHT22;682;52.502;13.488;2023-12-20T02:21:47;7.60;1.00
1377;DHT22;682;52.502;13.488;2023-12-20T02:24:17;7.50;1.00
1377;DHT22;682;52.502;13.488;2023-12-20T02:26:44;7.40;1.00
1377;DHT22;682;52.502;13.488;2023-12-20T02:29:12;7.20;1.00
1377;DHT22;682;52.502;13.488;2023-12-20T02:31:48;7.10;1.00
1377;DHT22;682;52.502;13.488;2023-12-20T02:34:17;7.10;1.00
1377;DHT22;682;52.502;13.488;2023-12-20T02:36:51;7.10;1.00
1377;DHT22;682;52.502;13.488;2023-12-20T02:39:27;7.10;1.00
1377;DHT22;682;52.502;13.488;2023-12-20T02:41:56;7.20;1.00
1377;DHT22;682;52.502;13.488;2023-12-20T02:44:23;7.20;1.00
1377;DHT22;682;52.502;13.488;2023-12-20T02:46:51;7.20;1.00
1377;DHT22;682;52.502;13.488;2023-12-20T02:49:18;7.30;1.00
1377;DHT22;682;52.502;13.488;2023-12-20T02:51:46;7.30;1.00
1377;DHT22;682;52.502;13.488;2023-12-20T02:54:14;7.40;1.00
1377;DHT22;682;52.502;13.488;2023-12-20T02:56:44;7.40;1.00
1377;DHT22;682;52.502;13.488;2023-12-20T02:59:13;7.40;1.00
1377;DHT22;682;52.502;13.488;2023-12-20T03:01:45;7.40;1.00
1377;DHT22;682;52.502;13.488;2023-12-20T03:04:15;7.40;1.00
1377;DHT22;682;52.502;13.488;2023-12-20T03:06:44;7.40;1.00
1377;DHT22;682;52.502;13.488;2023-12-20T03:09:16;7.40;1.00
1377;DHT22;682;52.502;13.488;2023-12-20T03:11:47;7.30;1.00
1377;DHT22;682;52.502;13.488;2023-12-20T03:14:19;7.30;1.00
1377;DHT22;682;52.502;13.488;2023-12-20T03:16:49;7.30;1.00
1377;DHT22;682;52.502;13.488;2023-12-20T03:19:22;7.20;1.00
1377;DHT22;682;52.502;13.488;2023-12-20T03:21:51;7.20;1.00
1377;DHT22;682;52.502;13.488;2023-12-20T03:24:43;7.20;1.00
1377;DHT22;682;52.502;13.488;2023-12-20T03:27:14;7.20;1.00
1377;DHT22;682;52.502;13.488;2023-12-20T03:29:43;7.10;1.00
1377;DHT22;682;52.502;13.488;2023-12-20T03:32:11;7.20;1.00
1377;DHT22;682;52.502;13.488;2023-12-20T03:34:38;7.20;1.00
1377;DHT22;682;52.502;13.488;2023-12-20T03:37:08;7.10;1.00
1377;DHT22;682;52.502;13.488;2023-12-20T03:39:46;7.00;1.00
1377;DHT22;682;52.502;13.488;2023-12-20T03:42:18;7.00;1.00
1377;DHT22;682;52.502;13.488;2023-12-20T03:44:51;7.00;1.00
1377;DHT22;682;52.502;13.488;2023-12-20T03:47:18;7.00;1.00
1377;DHT22;682;52.502;13.488;2023-12-20T03:49:45;7.00;1.00
1377;DHT22;682;52.502;13.488;2023-12-20T03:52:13;7.00;1.00
1377;DHT22;682;52.502;13.488;2023-12-20T03:54:50;6.90;1.00
1377;DHT22;682;52.502;13.488;2023-12-20T03:57:28;7.00;1.00
1377;DHT22;682;52.502;13.488;2023-12-20T03:59:58;6.90;1.00
1377;DHT22;682;52.502;13.488;2023-12-20T04:02:29;6.90;1.00
1377;DHT22;682;52.502;13.488;2023-12-20T04:04:57;6.90;1.00
1377;DHT22;682;52.502;13.488;2023-12-20T04:10:54;6.90;1.00
1377;DHT22;682;52.502;13.488;2023-12-20T04:13:27;6.90;1.00
1377;DHT22;682;52.502;13.488;2023-12-20T04:15:56;6.90;1.00
1377;DHT22;682;52.502;13.488;2023-12-20T04:18:34;6.90;1.00
1377;DHT22;682;52.502;13.488;2023-12-20T04:21:02;6.90;1.00
1377;DHT22;682;52.502;13.488;2023-12-20T04:23:29;6.90;1.00
1377;DHT22;682;52.502;13.488;2023-12-20T04:26:01;6.90;1.00
1377;DHT22;682;52.502;13.488;2023-12-20T04:28:28;6.90;1.00
1377;DHT22;682;52.502;13.488;2023-12-20T04:30:57;6.90;1.00
1377;DHT22;682;52.502;13.488;2023-12-20T04:33:26;6.90;1.00
1377;DHT22;682;52.502;13.488;2023-12-20T04:35:54;7.00;1.00
1377;DHT22;682;52.502;13.488;2023-12-20T04:38:21;7.00;1.00
1377;DHT22;682;52.502;13.488;2023-12-20T04:40:48;7.00;1.00
1377;DHT22;682;52.502;13.488;2023-12-20T04:43:18;6.90;1.00
1377;DHT22;682;52.502;13.488;2023-12-20T04:45:50;6.70;1.00
1377;DHT22;682;52.502;13.488;2023-12-20T04:48:17;6.70;1.00
1377;DHT22;682;52.502;13.488;2023-12-20T04:50:44;6.60;1.00
1377;DHT22;682;52.502;13.488;2023-12-20T04:53:12;6.60;1.00
1377;DHT22;682;52.502;13.488;2023-12-20T04:55:41;6.50;1.00
1377;DHT22;682;52.502;13.488;2023-12-20T04:58:09;6.50;1.00
1377;DHT22;682;52.502;13.488;2023-12-20T05:17:41;6.30;1.00
1377;DHT22;682;52.502;13.488;2023-12-20T05:20:09;6.40;1.00
1377;DHT22;682;52.502;13.488;2023-12-20T05:22:36;6.40;1.00
1377;DHT22;682;52.502;13.488;2023-12-20T05:25:03;6.40;1.00
1377;DHT22;682;52.502;13.488;2023-12-20T05:27:30;6.40;1.00
1377;DHT22;682;52.502;13.488;2023-12-20T05:29:57;6.40;1.00
1377;DHT22;682;52.502;13.488;2023-12-20T05:32:24;6.30;1.00
1377;DHT22;682;52.502;13.488;2023-12-20T05:34:53;6.30;1.00
1377;DHT22;682;52.502;13.488;2023-12-20T05:37:20;6.20;1.00
1377;DHT22;682;52.502;13.488;2023-12-20T05:39:47;6.20;1.00
1377;DHT22;682;52.502;13.488;2023-12-20T05:42:14;6.10;1.00
1377;DHT22;682;52.502;13.488;2023-12-20T05:44:41;6.10;1.00
1377;DHT22;682;52.502;13.488;2023-12-20T05:47:08;6.00;1.00
1377;DHT22;682;52.502;13.488;2023-12-20T05:49:35;6.00;1.00
1377;DHT22;682;52.502;13.488;2023-12-20T05:52:03;5.90;1.00
1377;DHT22;682;52.502;13.488;2023-12-20T05:54:30;5.80;1.00
1377;DHT22;682;52.502;13.488;2023-12-20T05:56:57;5.80;1.00
1377;DHT22;682;52.502;13.488;2023-12-20T05:59:25;5.70;1.00
1377;DHT22;682;52.502;13.488;2023-12-20T06:01:52;5.70;1.00
1377;DHT22;682;52.502;13.488;2023-12-20T06:04:19;5.60;1.00
1377;DHT22;682;52.502;13.488;2023-12-20T06:06:47;5.60;1.00
1377;DHT22;682;52.502;13.488;2023-12-20T06:09:15;5.60;1.00
1377;DHT22;682;52.502;13.488;2023-12-20T06:11:42;5.60;1.00
1377;DHT22;682;52.502;13.488;2023-12-20T06:14:09;5.60;1.00
1377;DHT22;682;52.502;13.488;2023-12-20T06:16:36;5.60;1.00
1377;DHT22;682;52.502;13.488;2023-12-20T06:19:03;5.60;1.00
1377;DHT22;682;52.502;13.488;2023-12-20T06:21:30;5.60;1.00
1377;DHT22;682;52.502;13.488;2023-12-20T06:23:58;5.60;1.00
1377;DHT22;682;52.502;13.488;2023-12-20T06:26:29;5.60;1.00
1377;DHT22;682;52.502;13.488;2023-12-20T06:28:56;5.60;1.00
1377;DHT22;682;52.502;13.488;2023-12-20T06:31:23;5.50;1.00
1377;DHT22;682;52.502;13.488;2023-12-20T06:33:50;5.60;1.00
1377;DHT22;682;52.502;13.488;2023-12-20T06:36:23;5.50;1.00
1377;DHT22;682;52.502;13.488;2023-12-20T06:38:50;5.60;1.00
1377;DHT22;682;52.502;13.488;2023-12-20T06:41:17;5.60;1.00
1377;DHT22;682;52.502;13.488;2023-12-20T06:43:45;5.50;1.00
1377;DHT22;682;52.502;13.488;2023-12-20T06:46:13;5.50;1.00
1377;DHT22;682;52.502;13.488;2023-12-20T06:48:40;5.60;1.00
1377;DHT22;682;52.502;13.488;2023-12-20T06:51:10;5.50;1.00
1377;DHT22;682;52.502;13.488;2023-12-20T06:53:41;5.50;1.00
1377;DHT22;682;52.502;13.488;2023-12-20T06:56:10;5.60;1.00
1377;DHT22;682;52.502;13.488;2023-12-20T06:58:37;5.60;1.00
1377;DHT22;682;52.502;13.488;2023-12-20T07:01:05;5.60;1.00
1377;DHT22;682;52.502;13.488;2023-12-20T07:03:37;5.60;1.00
1377;DHT22;682;52.502;13.488;2023-12-20T07:06:04;5.60;1.00
1377;DHT22;682;52.502;13.488;2023-12-20T07:08:33;5.70;1.00
1377;DHT22;682;52.502;13.488;2023-12-20T07:11:00;5.70;1.00
1377;DHT22;682;52.502;13.488;2023-12-20T07:13:27;5.70;1.00
1377;DHT22;682;52.502;13.488;2023-12-20T07:15:54;5.80;1.00
1377;DHT22;682;52.502;13.488;2023-12-20T07:18:22;5.80;1.00
1377;DHT22;682;52.502;13.488;2023-12-20T07:20:49;5.80;1.00
1377;DHT22;682;52.502;13.488;2023-12-20T07:23:16;5.80;1.00
1377;DHT22;682;52.502;13.488;2023-12-20T07:25:43;5.80;1.00
1377;DHT22;682;52.502;13.488;2023-12-20T07:28:10;5.80;1.00
1377;DHT22;682;52.502;13.488;2023-12-20T07:30:37;5.80;1.00
1377;DHT22;682;52.502;13.488;2023-12-20T07:33:04;5.80;1.00
1377;DHT22;682;52.502;13.488;2023-12-20T07:35:35;5.90;1.00
1377;DHT22;682;52.502;13.488;2023-12-20T07:38:03;5.90;1.00
1377;DHT22;682;52.502;13.488;2023-12-20T07:40:32;5.90;1.00
1377;DHT22;682;52.502;13.488;2023-12-20T07:42:59;5.90;1.00
1377;DHT22;682;52.502;13.488;2023-12-20T07:45:26;5.90;1.00
1377;DHT22;682;52.502;13.488;2023-12-20T07:47:53;6.00;1.00
1377;DHT22;682;52.502;13.488;2023-12-20T07:50:21;6.00;1.00
1377;DHT22;682;52.502;13.488;2023-12-20T07:52:49;6.00;1.00
1377;DHT22;682;52.502;13.488;2023-12-20T07:55:16;5.90;1.00
1377;DHT22;682;52.502;13.488;2023-12-20T07:57:43;5.90;1.00
1377;DHT22;682;52.502;13.488;2023-12-20T08:00:11;6.00;1.00
1377;DHT22;682;52.502;13.488;2023-12-20T08:02:38;6.00;1.00
1377;DHT22;682;52.502;13.488;2023-12-20T08:05:06;6.00;1.00
1377;DHT22;682;52.502;13.488;2023-12-20T08:07:35;6.00;1.00
1377;DHT22;682;52.502;13.488;2023-12-20T08:10:04;6.00;1.00
1377;DHT22;682;52.502;13.488;2023-12-20T08:12:31;6.00;1.00
1377;DHT22;682;52.502;13.488;2023-12-20T08:15:02;6.00;1.00
1377;DHT22;682;52.502;13.488;2023-12-20T08:17:29;6.10;1.00
1377;DHT22;682;52.502;13.488;2023-12-20T08:19:56;6.10;1.00
1377;DHT22;682;52.502;13.488;2023-12-20T08:22:24;6.20;1.00
1377;DHT22;682;52.502;13.488;2023-12-20T08:24:51;6.20;1.00
1377;DHT22;682;52.502;13.488;2023-12-20T08:27:19;6.20;1.00
1377;DHT22;682;52.502;13.488;2023-12-20T08:29:46;6.20;1.00
1377;DHT22;682;52.502;13.488;2023-12-20T08:32:15;6.20;1.00
1377;DHT22;682;52.502;13.488;2023-12-20T08:34:42;6.20;1.00
1377;DHT22;682;52.502;13.488;2023-12-20T08:37:11;6.20;1.00
1377;DHT22;682;52.502;13.488;2023-12-20T08:39:38;6.20;1.00
1377;DHT22;682;52.502;13.488;2023-12-20T08:42:06;6.20;1.00
1377;DHT22;682;52.502;13.488;2023-12-20T08:44:34;6.20;1.00
1377;DHT22;682;52.502;13.488;2023-12-20T08:47:01;6.10;1.00
1377;DHT22;682;52.502;13.488;2023-12-20T08:49:30;6.20;1.00
1377;DHT22;682;52.502;13.488;2023-12-20T08:51:57;6.20;1.00
1377;DHT22;682;52.502;13.488;2023-12-20T08:54:24;6.30;1.00
1377;DHT22;682;52.502;13.488;2023-12-20T08:56:52;6.40;1.00
1377;DHT22;682;52.502;13.488;2023-12-20T08:59:19;6.50;1.00
1377;DHT22;682;52.502;13.488;2023-12-20T09:01:47;6.60;1.00
1377;DHT22;682;52.502;13.488;2023-12-20T09:04:19;6.50;1.00
1377;DHT22;682;52.502;13.488;2023-12-20T09:06:46;6.50;1.00
1377;DHT22;682;52.502;13.488;2023-12-20T09:09:13;6.50;1.00
1377;DHT22;682;52.502;13.488;2023-12-20T09:11:41;6.50;1.00
1377;DHT22;682;52.502;13.488;2023-12-20T09:14:08;6.50;1.00
1377;DHT22;682;52.502;13.488;2023-12-20T09:16:35;6.70;1.00
1377;DHT22;682;52.502;13.488;2023-12-20T09:19:03;6.80;1.00
1377;DHT22;682;52.502;13.488;2023-12-20T09:21:30;6.90;1.00
1377;DHT22;682;52.502;13.488;2023-12-20T09:23:57;7.00;1.00
1377;DHT22;682;52.502;13.488;2023-12-20T09:26:24;7.00;1.00
1377;DHT22;682;52.502;13.488;2023-12-20T09:28:51;7.00;1.00
1377;DHT22;682;52.502;13.488;2023-12-20T09:31:18;7.00;1.00
1377;DHT22;682;52.502;13.488;2023-12-20T09:33:45;7.00;1.00
1377;DHT22;682;52.502;13.488;2023-12-20T09:36:13;7.00;1.00
1377;DHT22;682;52.502;13.488;2023-12-20T09:38:40;7.10;1.00
1377;DHT22;682;52.502;13.488;2023-12-20T09:41:07;7.00;1.00
1377;DHT22;682;52.502;13.488;2023-12-20T09:43:37;7.10;1.00
1377;DHT22;682;52.502;13.488;2023-12-20T09:46:06;7.10;1.00
1377;DHT22;682;52.502;13.488;2023-12-20T09:48:33;7.10;1.00
1377;DHT22;682;52.502;13.488;2023-12-20T09:51:01;7.10;1.00
1377;DHT22;682;52.502;13.488;2023-12-20T09:53:32;7.00;1.00
1377;DHT22;682;52.502;13.488;2023-12-20T09:56:00;7.00;1.00
1377;DHT22;682;52.502;13.488;2023-12-20T09:58:28;7.10;1.00
1377;DHT22;682;52.502;13.488;2023-12-20T10:00:56;7.10;1.00
1377;DHT22;682;52.502;13.488;2023-12-20T10:03:25;7.00;1.00
1377;DHT22;682;52.502;13.488;2023-12-20T10:05:55;7.10;1.00
1377;DHT22;682;52.502;13.488;2023-12-20T10:08:24;7.10;1.00
1377;DHT22;682;52.502;13.488;2023-12-20T10:10:53;7.20;1.00
1377;DHT22;682;52.502;13.488;2023-12-20T10:13:21;7.20;1.00
1377;DHT22;682;52.502;13.488;2023-12-20T10:15:50;7.20;1.00
1377;DHT22;682;52.502;13.488;2023-12-20T10:18:17;7.20;1.00
1377;DHT22;682;52.502;13.488;2023-12-20T10:20:45;7.30;1.00
1377;DHT22;682;52.502;13.488;2023-12-20T10:23:12;7.30;1.00
1377;DHT22;682;52.502;13.488;2023-12-20T10:25:41;7.40;1.00
1377;DHT22;682;52.502;13.488;2023-12-20T10:28:14;7.30;1.00
1377;DHT22;682;52.502;13.488;2023-12-20T10:30:44;7.30;1.00
1377;DHT22;682;52.502;13.488;2023-12-20T10:33:11;7.30;1.00
1377;DHT22;682;52.502;13.488;2023-12-20T10:35:39;7.30;1.00
1377;DHT22;682;52.502;13.488;2023-12-20T10:38:07;7.30;1.00
1377;DHT22;682;52.502;13.488;2023-12-20T10:40:35;7.30;1.00
1377;DHT22;682;52.502;13.488;2023-12-20T10:43:04;7.30;1.00
1377;DHT22;682;52.502;13.488;2023-12-20T10:45:33;7.40;1.00
1377;DHT22;682;52.502;13.488;2023-12-20T10:48:01;7.30;1.00
1377;DHT22;682;52.502;13.488;2023-12-20T10:50:29;7.30;1.00
1377;DHT22;682;52.502;13.488;2023-12-20T10:52:56;7.30;1.00
1377;DHT22;682;52.502;13.488;2023-12-20T10:55:24;7.50;1.00
1377;DHT22;682;52.502;13.488;2023-12-20T10:57:51;7.50;1.00
1377;DHT22;682;52.502;13.488;2023-12-20T11:00:19;7.50;1.00
1377;DHT22;682;52.502;13.488;2023-12-20T11:02:49;7.50;1.00
1377;DHT22;682;52.502;13.488;2023-12-20T11:05:25;7.60;1.00
1377;DHT22;682;52.502;13.488;2023-12-20T11:07:59;7.50;1.00
1377;DHT22;682;52.502;13.488;2023-12-20T11:10:31;7.50;1.00
1377;DHT22;682;52.502;13.488;2023-12-20T11:13:08;7.60;1.00
1377;DHT22;682;52.502;13.488;2023-12-20T11:15:36;7.60;1.00
1377;DHT22;682;52.502;13.488;2023-12-20T11:18:05;7.60;1.00
1377;DHT22;682;52.502;13.488;2023-12-20T11:20:37;7.50;1.00
1377;DHT22;682;52.502;13.488;2023-12-20T11:23:05;7.40;1.00
1377;DHT22;682;52.502;13.488;2023-12-20T11:25:46;7.30;1.00
1377;DHT22;682;52.502;13.488;2023-12-20T11:28:14;7.30;1.00
1377;DHT22;682;52.502;13.488;2023-12-20T11:30:47;7.20;1.00
1377;DHT22;682;52.502;13.488;2023-12-20T11:33:16;7.10;1.00
1377;DHT22;682;52.502;13.488;2023-12-20T11:35:46;7.10;1.00
1377;DHT22;682;52.502;13.488;2023-12-20T11:38:14;7.10;1.00
1377;DHT22;682;52.502;13.488;2023-12-20T11:40:42;7.00;1.00
1377;DHT22;682;52.502;13.488;2023-12-20T11:43:10;7.00;1.00
1377;DHT22;682;52.502;13.488;2023-12-20T11:45:37;6.90;1.00
1377;DHT22;682;52.502;13.488;2023-12-20T11:48:06;6.90;1.00
1377;DHT22;682;52.502;13.488;2023-12-20T11:50:38;6.90;1.00
1377;DHT22;682;52.502;13.488;2023-12-20T11:53:06;6.90;1.00
1377;DHT22;682;52.502;13.488;2023-12-20T11:55:33;6.80;1.00
1377;DHT22;682;52.502;13.488;2023-12-20T11:58:02;6.80;1.00
1377;DHT22;682;52.502;13.488;2023-12-20T12:00:29;6.80;1.00
1377;DHT22;682;52.502;13.488;2023-12-20T12:02:57;6.90;1.00
1377;DHT22;682;52.502;13.488;2023-12-20T12:05:24;6.90;1.00
1377;DHT22;682;52.502;13.488;2023-12-20T12:07:53;6.90;1.00
1377;DHT22;682;52.502;13.488;2023-12-20T12:10:20;6.90;1.00
1377;DHT22;682;52.502;13.488;2023-12-20T12:12:47;6.80;1.00
1377;DHT22;682;52.502;13.488;2023-12-20T12:15:15;6.90;1.00
1377;DHT22;682;52.502;13.488;2023-12-20T12:17:42;6.90;1.00
1377;DHT22;682;52.502;13.488;2023-12-20T12:20:09;6.90;1.00
1377;DHT22;682;52.502;13.488;2023-12-20T12:22:37;6.90;1.00
1377;DHT22;682;52.502;13.488;2023-12-20T12:25:13;6.90;1.00
1377;DHT22;682;52.502;13.488;2023-12-20T12:27:40;6.90;1.00
1377;DHT22;682;52.502;13.488;2023-12-20T12:30:09;7.00;1.00
1377;DHT22;682;52.502;13.488;2023-12-20T12:32:38;7.00;1.00
1377;DHT22;682;52.502;13.488;2023-12-20T12:35:06;6.90;1.00
1377;DHT22;682;52.502;13.488;2023-12-20T12:37:34;6.90;1.00
1377;DHT22;682;52.502;13.488;2023-12-20T12:40:04;6.80;1.00
1377;DHT22;682;52.502;13.488;2023-12-20T12:42:33;6.70;1.00
1377;DHT22;682;52.502;13.488;2023-12-20T12:45:00;6.60;1.00
1377;DHT22;682;52.502;13.488;2023-12-20T12:47:26;6.60;1.00
1377;DHT22;682;52.502;13.488;2023-12-20T12:49:54;6.50;1.00
1377;DHT22;682;52.502;13.488;2023-12-20T12:52:20;6.40;1.00
1377;DHT22;682;52.502;13.488;2023-12-20T12:54:48;6.40;1.00
1377;DHT22;682;52.502;13.488;2023-12-20T12:57:15;6.30;1.00
1377;DHT22;682;52.502;13.488;2023-12-20T12:59:44;6.30;1.00
1377;DHT22;682;52.502;13.488;2023-12-20T13:02:12;6.30;1.00
1377;DHT22;682;52.502;13.488;2023-12-20T13:04:39;6.30;1.00
1377;DHT22;682;52.502;13.488;2023-12-20T13:07:07;6.30;1.00
1377;DHT22;682;52.502;13.488;2023-12-20T13:09:36;6.30;1.00
1377;DHT22;682;52.502;13.488;2023-12-20T13:12:04;6.30;1.00
1377;DHT22;682;52.502;13.488;2023-12-20T13:14:33;6.30;1.00
1377;DHT22;682;52.502;13.488;2023-12-20T13:17:01;6.20;1.00
1377;DHT22;682;52.502;13.488;2023-12-20T13:19:29;6.30;1.00
1377;DHT22;682;52.502;13.488;2023-12-20T13:21:56;6.30;1.00
1377;DHT22;682;52.502;13.488;2023-12-20T13:24:23;6.30;1.00
1377;DHT22;682;52.502;13.488;2023-12-20T13:26:50;6.30;1.00
1377;DHT22;682;52.502;13.488;2023-12-20T13:29:17;6.20;1.00
1377;DHT22;682;52.502;13.488;2023-12-20T13:31:44;6.20;1.00
1377;DHT22;682;52.502;13.488;2023-12-20T13:34:13;6.00;1.00
1377;DHT22;682;52.502;13.488;2023-12-20T13:36:41;5.70;1.00
1377;DHT22;682;52.502;13.488;2023-12-20T13:39:11;5.60;1.00
1377;DHT22;682;52.502;13.488;2023-12-20T13:41:38;5.60;1.00
1377;DHT22;682;52.502;13.488;2023-12-20T13:44:05;5.50;1.00
1377;DHT22;682;52.502;13.488;2023-12-20T13:46:32;5.50;1.00
1377;DHT22;682;52.502;13.488;2023-12-20T13:48:59;5.50;1.00
1377;DHT22;682;52.502;13.488;2023-12-20T13:51:28;5.50;1.00
1377;DHT22;682;52.502;13.488;2023-12-20T13:53:55;5.40;1.00
1377;DHT22;682;52.502;13.488;2023-12-20T13:56:23;5.40;1.00
1377;DHT22;682;52.502;13.488;2023-12-20T13:58:50;5.30;1.00
1377;DHT22;682;52.502;13.488;2023-12-20T14:01:17;5.30;1.00
1377;DHT22;682;52.502;13.488;2023-12-20T14:03:44;5.30;1.00
1377;DHT22;682;52.502;13.488;2023-12-20T14:06:11;5.30;1.00
1377;DHT22;682;52.502;13.488;2023-12-20T14:08:40;5.20;1.00
1377;DHT22;682;52.502;13.488;2023-12-20T14:11:08;5.30;1.00
1377;DHT22;682;52.502;13.488;2023-12-20T14:13:36;5.30;1.00
1377;DHT22;682;52.502;13.488;2023-12-20T14:16:03;5.20;1.00
1377;DHT22;682;52.502;13.488;2023-12-20T14:18:33;5.20;1.00
1377;DHT22;682;52.502;13.488;2023-12-20T14:21:00;5.20;1.00
1377;DHT22;682;52.502;13.488;2023-12-20T14:23:27;5.20;1.00
1377;DHT22;682;52.502;13.488;2023-12-20T14:25:56;5.20;1.00
1377;DHT22;682;52.502;13.488;2023-12-20T14:28:24;5.20;1.00
1377;DHT22;682;52.502;13.488;2023-12-20T14:30:51;5.20;1.00
1377;DHT22;682;52.502;13.488;2023-12-20T14:33:18;5.20;1.00
1377;DHT22;682;52.502;13.488;2023-12-20T14:35:47;5.30;1.00
1377;DHT22;682;52.502;13.488;2023-12-20T14:38:14;5.30;1.00
1377;DHT22;682;52.502;13.488;2023-12-20T14:40:41;5.30;1.00
1377;DHT22;682;52.502;13.488;2023-12-20T14:43:09;5.20;1.00
1377;DHT22;682;52.502;13.488;2023-12-20T14:45:36;5.30;1.00
1377;DHT22;682;52.502;13.488;2023-12-20T14:48:06;5.30;1.00
1377;DHT22;682;52.502;13.488;2023-12-20T14:50:33;5.30;1.00
1377;DHT22;682;52.502;13.488;2023-12-20T14:53:02;5.30;1.00
1377;DHT22;682;52.502;13.488;2023-12-20T14:55:29;5.30;1.00
1377;DHT22;682;52.502;13.488;2023-12-20T14:57:56;5.30;1.00
1377;DHT22;682;52.502;13.488;2023-12-20T15:00:24;5.30;1.00
1377;DHT22;682;52.502;13.488;2023-12-20T15:02:51;5.30;1.00
1377;DHT22;682;52.502;13.488;2023-12-20T15:05:19;5.30;1.00
1377;DHT22;682;52.502;13.488;2023-12-20T15:07:46;5.30;1.00
1377;DHT22;682;52.502;13.488;2023-12-20T15:10:14;5.30;1.00
1377;DHT22;682;52.502;13.488;2023-12-20T15:12:42;5.30;1.00
1377;DHT22;682;52.502;13.488;2023-12-20T15:15:10;5.30;1.00
1377;DHT22;682;52.502;13.488;2023-12-20T15:17:39;5.30;1.00
1377;DHT22;682;52.502;13.488;2023-12-20T15:20:06;5.30;1.00
1377;DHT22;682;52.502;13.488;2023-12-20T15:22:35;5.40;1.00
1377;DHT22;682;52.502;13.488;2023-12-20T15:25:03;5.40;1.00
1377;DHT22;682;52.502;13.488;2023-12-20T15:27:32;5.40;1.00
1377;DHT22;682;52.502;13.488;2023-12-20T15:30:01;5.40;1.00
1377;DHT22;682;52.502;13.488;2023-12-20T15:32:28;5.50;1.00
1377;DHT22;682;52.502;13.488;2023-12-20T15:34:56;5.40;1.00
1377;DHT22;682;52.502;13.488;2023-12-20T15:37:23;5.40;1.00
1377;DHT22;682;52.502;13.488;2023-12-20T15:39:52;5.40;1.00
1377;DHT22;682;52.502;13.488;2023-12-20T15:42:19;5.30;1.00
1377;DHT22;682;52.502;13.488;2023-12-20T15:44:46;5.30;1.00
1377;DHT22;682;52.502;13.488;2023-12-20T15:47:13;5.20;1.00
1377;DHT22;682;52.502;13.488;2023-12-20T15:49:40;5.20;1.00
1377;DHT22;682;52.502;13.488;2023-12-20T15:52:09;5.20;1.00
1377;DHT22;682;52.502;13.488;2023-12-20T15:54:36;5.10;1.00
1377;DHT22;682;52.502;13.488;2023-12-20T15:57:04;5.10;1.00
1377;DHT22;682;52.502;13.488;2023-12-20T15:59:31;5.10;1.00
1377;DHT22;682;52.502;13.488;2023-12-20T16:01:58;5.10;1.00
1377;DHT22;682;52.502;13.488;2023-12-20T16:04:26;5.00;1.00
1377;DHT22;682;52.502;13.488;2023-12-20T16:06:54;5.00;1.00
1377;DHT22;682;52.502;13.488;2023-12-20T16:09:22;5.00;1.00
1377;DHT22;682;52.502;13.488;2023-12-20T16:11:49;5.00;1.00
1377;DHT22;682;52.502;13.488;2023-12-20T16:14:16;4.90;1.00
1377;DHT22;682;52.502;13.488;2023-12-20T16:16:45;4.90;1.00
1377;DHT22;682;52.502;13.488;2023-12-20T16:19:12;4.90;1.00
1377;DHT22;682;52.502;13.488;2023-12-20T16:21:39;4.90;1.00
1377;DHT22;682;52.502;13.488;2023-12-20T16:24:07;4.80;1.00
1377;DHT22;682;52.502;13.488;2023-12-20T16:26:35;4.80;1.00
1377;DHT22;682;52.502;13.488;2023-12-20T16:29:02;4.80;1.00
1377;DHT22;682;52.502;13.488;2023-12-20T16:31:29;4.80;1.00
1377;DHT22;682;52.502;13.488;2023-12-20T16:33:55;4.80;1.00
1377;DHT22;682;52.502;13.488;2023-12-20T16:36:23;4.80;1.00
1377;DHT22;682;52.502;13.488;2023-12-20T16:38:50;4.80;1.00
1377;DHT22;682;52.502;13.488;2023-12-20T16:41:17;4.80;1.00
1377;DHT22;682;52.502;13.488;2023-12-20T16:43:46;4.80;1.00
1377;DHT22;682;52.502;13.488;2023-12-20T16:46:14;4.80;1.00
1377;DHT22;682;52.502;13.488;2023-12-20T16:48:41;4.80;1.00
1377;DHT22;682;52.502;13.488;2023-12-20T16:51:08;4.90;1.00
1377;DHT22;682;52.502;13.488;2023-12-20T16:53:35;4.90;1.00
1377;DHT22;682;52.502;13.488;2023-12-20T16:56:02;4.90;1.00
1377;DHT22;682;52.502;13.488;2023-12-20T16:58:29;4.90;1.00
1377;DHT22;682;52.502;13.488;2023-12-20T17:00:57;4.90;1.00
1377;DHT22;682;52.502;13.488;2023-12-20T17:03:24;4.90;1.00
1377;DHT22;682;52.502;13.488;2023-12-20T17:05:51;4.90;1.00